Buoy 31711

sailwx.info

Track history (hours):
 
Tides and Currents Weather Stations Pressure Air Temp Water Temp Dewpoint Dewpoint Depression Visibility Wind Speed Wind Dir Waves Ship Positions

Drifting buoy 31711

Last reported at 2017-Dec-11 14:00 UTC. Time now 2017-Dec-12 17:53 UTC.
Position N 13°52' W 081°11'.

Water temperature 28.3 ° C

Date/timePositionNaut miles runAvg speedWind from/ knotsBaromVisibWave heightAir tempDewpointWater temp
2017-Dec-11 14:00N 13°52' W 081°11'0 0.0 28.3
2017-Dec-11 13:00N 13°52' W 081°11'1 0.6 28.2
2017-Dec-11 12:00N 13°52' W 081°10'3 2.6 28.2
2017-Dec-11 11:00N 13°53' W 081°08'1 0.6 28.3
2017-Dec-11 10:00N 13°53' W 081°07'2 2.1 28.3
2017-Dec-11 09:00N 13°55' W 081°06'6 2.8 28.3
2017-Dec-11 07:00N 13°58' W 081°01'2 0.5 28.4
2017-Dec-11 03:00N 13°58' W 080°59'4 1.9 28.4
2017-Dec-11 01:00N 14°01' W 080°56'3 3.1 28.4
2017-Dec-11 00:00N 14°02' W 080°53'1 1.3 28.4
2017-Dec-10 23:00N 14°03' W 080°53'0 0.0 28.5
2017-Dec-10 22:00N 14°03' W 080°53'0 0.0 28.4
2017-Dec-10 21:00N 14°03' W 080°53'2 2.1 28.4
2017-Dec-10 20:00N 14°04' W 080°51'0 0.0 28.4
2017-Dec-10 19:00N 14°04' W 080°51'3 1.1 28.4
2017-Dec-10 16:00N 14°06' W 080°48'2 1.7 28.5
2017-Dec-10 15:00N 14°07' W 080°47'0 0.0 28.5
2017-Dec-10 14:00N 14°07' W 080°47'2 2.1 28.5
2017-Dec-10 13:00N 14°08' W 080°45'1 0.6 28.5
2017-Dec-10 12:00N 14°08' W 080°45'1 1.2 28.5
2017-Dec-10 11:00N 14°09' W 080°45'1 1.3 28.5
2017-Dec-10 10:00N 14°10' W 080°44'0 0.0 28.5
2017-Dec-10 09:00N 14°10' W 080°44'3 0.5 28.5
2017-Dec-10 02:00N 14°07' W 080°41'1 1.3 28.5
2017-Dec-10 01:00N 14°07' W 080°40'1 0.6 28.5
2017-Dec-10 00:00N 14°06' W 080°40'2 2.1 28.5
2017-Dec-09 23:00N 14°05' W 080°38'1 0.6 28.5
2017-Dec-09 22:00N 14°05' W 080°38'0 0.0 28.6
2017-Dec-09 21:00N 14°05' W 080°38'6 6.3 28.6
2017-Dec-09 20:00N 14°02' W 080°32'5 4.8 28.6
2017-Dec-09 19:00N 14°04' W 080°37'5 1.3 28.6
2017-Dec-09 15:00N 14°02' W 080°31'1 1.2 28.5
2017-Dec-09 14:00N 14°02' W 080°30'1 0.6 28.5
2017-Dec-09 13:00N 14°02' W 080°29'1 0.8 28.5
2017-Dec-09 12:00N 14°02' W 080°29'0 0.0 28.5
2017-Dec-09 11:00N 14°02' W 080°29'2 1.8 28.5
2017-Dec-09 10:00N 14°01' W 080°27'1 0.6 28.6
2017-Dec-09 09:00N 14°01' W 080°26'0 0.0 28.6
2017-Dec-09 08:00N 14°01' W 080°26'5 1.0 28.6
2017-Dec-09 03:00N 14°01' W 080°21'1 0.6 28.7
2017-Dec-09 02:00N 14°01' W 080°20'1 0.8 28.7
2017-Dec-09 01:00N 14°02' W 080°20'2 1.7 28.7
2017-Dec-09 00:00N 14°02' W 080°18'0 0.0 28.7
2017-Dec-08 23:00N 14°02' W 080°18'1 1.2 28.7
2017-Dec-08 22:00N 14°02' W 080°17'1 0.6 28.7
2017-Dec-08 21:00N 14°02' W 080°16'1 0.6 28.7
2017-Dec-08 20:00N 14°02' W 080°16'0 0.0 28.7
2017-Dec-08 19:00N 14°02' W 080°16'5 1.3 28.7
2017-Dec-08 15:00N 14°02' W 080°10'0 0.0 28.7
2017-Dec-08 14:00N 14°02' W 080°10'1 0.6 28.7
2017-Dec-08 13:00N 14°02' W 080°10'1 1.2 28.8
2017-Dec-08 12:00N 14°02' W 080°08'1 1.2 28.8
2017-Dec-08 11:00N 14°02' W 080°07'0 0.0 28.7
2017-Dec-08 10:00N 14°02' W 080°07'7 7.4 28.7
2017-Dec-08 09:00N 13°59' W 080°00'0 0.0 28.7
2017-Dec-08 08:00N 13°59' W 080°00'0 0.0 28.6
2017-Dec-08 06:00N 13°59' W 080°00'1 0.3 28.5
2017-Dec-08 03:00N 13°59' W 079°59'2 1.8 28.6
2017-Dec-08 02:00N 13°58' W 079°58'1 0.6 28.6
2017-Dec-08 01:00N 13°58' W 079°57'2 2.4 28.7
2017-Dec-08 00:00N 13°58' W 079°55'0 0.0 28.7
2017-Dec-07 23:00N 13°58' W 079°55'5 5.4 28.8
2017-Dec-07 22:00N 13°56' W 079°49'0 0.0 28.8
2017-Dec-07 21:00N 13°56' W 079°49'0 0.0 28.8
2017-Dec-07 19:00N 13°56' W 079°49'9 2.3 28.8
2017-Dec-07 15:00N 13°57' W 079°40'2 1.7 28.8
2017-Dec-07 14:00N 13°57' W 079°38'0 0.0 28.8
2017-Dec-07 13:00N 13°57' W 079°38'3 3.5 28.8
2017-Dec-07 12:00N 13°57' W 079°34'1 0.6 28.8
2017-Dec-07 11:00N 13°57' W 079°34'4 3.5 28.8
2017-Dec-07 10:00N 13°58' W 079°30'9 9.2 28.8
2017-Dec-07 09:00N 14°01' W 079°21'0 0.0 28.8
2017-Dec-07 08:00N 14°01' W 079°21'0 0.0 28.8
2017-Dec-07 06:00N 14°01' W 079°21'1 0.4 28.8
2017-Dec-07 03:00N 14°01' W 079°20'1 1.3 28.8
2017-Dec-07 02:00N 14°02' W 079°19'1 1.2 28.8
2017-Dec-07 01:00N 14°02' W 079°17'3 2.6 28.8
2017-Dec-07 00:00N 14°03' W 079°15'3 3.1 28.8
2017-Dec-06 23:00N 14°04' W 079°12'1 1.3 28.8
2017-Dec-06 22:00N 14°05' W 079°11'0 0.0 28.8
2017-Dec-06 21:00N 14°05' W 079°11'8 8.1 28.8
2017-Dec-06 20:00N 14°08' W 079°03'2 0.3 28.8
2017-Dec-06 15:00N 14°08' W 079°01'3 3.1 28.8
2017-Dec-06 14:00N 14°09' W 078°58'0 0.0 28.9
2017-Dec-06 13:00N 14°09' W 078°58'1 0.6 28.8
2017-Dec-06 12:00N 14°09' W 078°58'2 2.4 28.8
2017-Dec-06 11:00N 14°10' W 078°55'2 2.4 28.8
2017-Dec-06 10:00N 14°10' W 078°53'1 0.6 28.7
2017-Dec-06 09:00N 14°10' W 078°52'9 9.0 28.7
2017-Dec-06 08:00N 14°13' W 078°43'0 0.0 28.7
2017-Dec-06 03:00N 14°13' W 078°43'3 2.6 28.7
2017-Dec-06 02:00N 14°14' W 078°41'1 0.6 28.7
2017-Dec-06 01:00N 14°14' W 078°40'3 2.6 28.7
2017-Dec-06 00:00N 14°15' W 078°38'1 1.3 28.7
2017-Dec-05 23:00N 14°16' W 078°37'1 1.2 28.7
2017-Dec-05 22:00N 14°16' W 078°35'2 2.4 28.7
2017-Dec-05 21:00N 14°16' W 078°33'0 0.0 28.7
2017-Dec-05 20:00N 14°16' W 078°33'7 7.1 28.7
2017-Dec-05 19:00N 14°17' W 078°26'0 0.0 28.7
2017-Dec-05 18:00N 14°17' W 078°26'0 0.0 28.6
2017-Dec-05 16:00N 14°17' W 078°26'4 2.2 28.6
2017-Dec-05 14:00N 14°19' W 078°22'1 1.3 28.5
2017-Dec-05 13:00N 14°20' W 078°20'1 0.6 28.5
2017-Dec-05 12:00N 14°20' W 078°20'1 0.8 28.5
2017-Dec-05 11:00N 14°20' W 078°19'2 2.3 28.5
2017-Dec-05 10:00N 14°20' W 078°17'1 1.3 28.5
2017-Dec-05 09:00N 14°21' W 078°16'2 2.4 28.5
2017-Dec-05 08:00N 14°22' W 078°13'1 0.8 28.5
2017-Dec-05 07:00N 14°22' W 078°14'9 1.8 28.6
2017-Dec-05 02:00N 14°25' W 078°05'3 3.0 28.6
2017-Dec-05 01:00N 14°25' W 078°02'0 0.0 28.6
2017-Dec-05 00:00N 14°25' W 078°02'2 1.8 28.6
2017-Dec-04 23:00N 14°26' W 078°00'3 3.0 28.6
2017-Dec-04 22:00N 14°26' W 077°57'0 0.0 28.6
2017-Dec-04 21:00N 14°26' W 077°57'2 1.8 28.6
2017-Dec-04 20:00N 14°27' W 077°55'0 0.0 28.6
2017-Dec-04 19:00N 14°27' W 077°55'0 0.0 28.6
2017-Dec-04 18:00N 14°27' W 077°55'9 2.2 28.6
2017-Dec-04 14:00N 14°30' W 077°47'0 0.0 28.6
2017-Dec-04 13:00N 14°30' W 077°47'4 4.1 28.6
2017-Dec-04 12:00N 14°31' W 077°43'1 1.3 28.5
2017-Dec-04 11:00N 14°31' W 077°41'1 0.8 28.6
2017-Dec-04 10:00N 14°32' W 077°41'0 0.0 28.5
2017-Dec-04 09:00N 14°32' W 077°41'2 1.7 28.5
2017-Dec-04 08:00N 14°33' W 077°40'8 7.6 28.5
2017-Dec-04 07:00N 14°36' W 077°32'1 0.1 28.6
2017-Dec-04 03:00N 14°35' W 077°32'2 2.1 28.6
2017-Dec-04 02:00N 14°37' W 077°31'1 1.3 28.6
2017-Dec-04 01:00N 14°37' W 077°29'0 0.0 28.7
2017-Dec-04 00:00N 14°37' W 077°29'4 4.2 28.7
2017-Dec-03 23:00N 14°38' W 077°25'0 0.0 28.7
2017-Dec-03 22:00N 14°38' W 077°25'0 0.0 28.7
2017-Dec-03 21:00N 14°38' W 077°25'2 2.4 28.7
2017-Dec-03 20:00N 14°39' W 077°23'1 0.6 28.7
2017-Dec-03 19:00N 14°39' W 077°23'0 0.0 28.7
2017-Dec-03 18:00N 14°39' W 077°23'7 2.2 28.7
2017-Dec-03 15:00N 14°41' W 077°17'1 1.3 28.6
2017-Dec-03 14:00N 14°41' W 077°16'2 2.4 28.6
2017-Dec-03 13:00N 14°42' W 077°13'3 2.6 28.6
2017-Dec-03 12:00N 14°43' W 077°11'0 0.0 28.6
2017-Dec-03 11:00N 14°43' W 077°11'2 1.8 28.6
2017-Dec-03 10:00N 14°44' W 077°09'2 1.8 28.6
2017-Dec-03 09:00N 14°44' W 077°07'7 7.4 28.6
2017-Dec-03 08:00N 14°47' W 077°00'0 0.0 28.7
2017-Dec-03 07:00N 14°47' W 077°00'1 0.3 28.6
2017-Dec-03 03:00N 14°47' W 076°59'2 1.8 28.7
2017-Dec-03 02:00N 14°48' W 076°57'2 2.4 28.7
2017-Dec-03 01:00N 14°49' W 076°55'5 4.8 28.7
2017-Dec-03 00:00N 14°50' W 076°50'0 0.0 28.7
2017-Dec-02 23:00N 14°50' W 076°50'1 0.6 28.8
2017-Dec-02 22:00N 14°50' W 076°49'0 0.0 28.8
2017-Dec-02 21:00N 14°50' W 076°49'3 3.1 28.8
2017-Dec-02 20:00N 14°51' W 076°46'6 6.3 28.8
2017-Dec-02 19:00N 14°53' W 076°40'0 0.0 28.8
2017-Dec-02 15:00N 14°53' W 076°40'2 1.7
2017-Dec-02 14:00N 14°55' W 076°39'1 1.2 28.7
2017-Dec-02 13:00N 14°55' W 076°38'2 1.8 28.7
2017-Dec-02 12:00N 14°55' W 076°36'1 0.6 28.7
2017-Dec-02 11:00N 14°55' W 076°35'2 2.4 28.7
2017-Dec-02 10:00N 14°56' W 076°33'0 0.0 28.7
2017-Dec-02 09:00N 14°56' W 076°33'7 6.6 28.7
2017-Dec-02 08:00N 14°58' W 076°26'7 6.6 28.7
2017-Dec-02 07:00N 14°56' W 076°33'7 1.7 28.7
2017-Dec-02 03:00N 14°58' W 076°26'2 1.7 28.7
2017-Dec-02 02:00N 14°58' W 076°25'0 0.0 28.7
2017-Dec-02 01:00N 14°58' W 076°25'1 1.3 28.7
2017-Dec-02 00:00N 14°58' W 076°23'1 0.8 28.8
2017-Dec-01 23:00N 14°59' W 076°23'2 1.8 28.8
2017-Dec-01 22:00N 14°59' W 076°21'0 0.0 28.8
2017-Dec-01 21:00N 14°59' W 076°21'2 1.8 28.8
2017-Dec-01 20:00N 15°00' W 076°19'1 0.6 28.8
2017-Dec-01 19:00N 14°59' W 076°19'6 1.4 28.8
2017-Dec-01 15:00N 15°01' W 076°14'1 0.8 28.7
2017-Dec-01 14:00N 15°02' W 076°13'   28.7
Track history (hours):
 
Tides and Currents Weather Stations Pressure Air Temp Water Temp Dewpoint Dewpoint Depression Visibility Wind Speed Wind Dir Waves Ship Positions

Drifting buoy 31711

Last reported at 2017-Dec-11 14:00 UTC. Time now 2017-Dec-12 17:53 UTC.
Position N 13°52' W 081°11'.

Water temperature 28.3 ° C

Date/timePositionNaut miles runAvg speedWind from/ knotsBaromVisibWave heightAir tempDewpointWater temp
2017-Dec-11 14:00N 13°52' W 081°11'0 0.0 28.3
2017-Dec-11 13:00N 13°52' W 081°11'1 0.6 28.2
2017-Dec-11 12:00N 13°52' W 081°10'3 2.6 28.2
2017-Dec-11 11:00N 13°53' W 081°08'1 0.6 28.3
2017-Dec-11 10:00N 13°53' W 081°07'2 2.1 28.3
2017-Dec-11 09:00N 13°55' W 081°06'6 2.8 28.3
2017-Dec-11 07:00N 13°58' W 081°01'2 0.5 28.4
2017-Dec-11 03:00N 13°58' W 080°59'4 1.9 28.4
2017-Dec-11 01:00N 14°01' W 080°56'3 3.1 28.4
2017-Dec-11 00:00N 14°02' W 080°53'1 1.3 28.4
2017-Dec-10 23:00N 14°03' W 080°53'0 0.0 28.5
2017-Dec-10 22:00N 14°03' W 080°53'0 0.0 28.4
2017-Dec-10 21:00N 14°03' W 080°53'2 2.1 28.4
2017-Dec-10 20:00N 14°04' W 080°51'0 0.0 28.4
2017-Dec-10 19:00N 14°04' W 080°51'3 1.1 28.4
2017-Dec-10 16:00N 14°06' W 080°48'2 1.7 28.5
2017-Dec-10 15:00N 14°07' W 080°47'0 0.0 28.5
2017-Dec-10 14:00N 14°07' W 080°47'2 2.1 28.5
2017-Dec-10 13:00N 14°08' W 080°45'1 0.6 28.5
2017-Dec-10 12:00N 14°08' W 080°45'1 1.2 28.5
2017-Dec-10 11:00N 14°09' W 080°45'1 1.3 28.5
2017-Dec-10 10:00N 14°10' W 080°44'0 0.0 28.5
2017-Dec-10 09:00N 14°10' W 080°44'3 0.5 28.5
2017-Dec-10 02:00N 14°07' W 080°41'1 1.3 28.5
2017-Dec-10 01:00N 14°07' W 080°40'1 0.6 28.5
2017-Dec-10 00:00N 14°06' W 080°40'2 2.1 28.5
2017-Dec-09 23:00N 14°05' W 080°38'1 0.6 28.5
2017-Dec-09 22:00N 14°05' W 080°38'0 0.0 28.6
2017-Dec-09 21:00N 14°05' W 080°38'6 6.3 28.6
2017-Dec-09 20:00N 14°02' W 080°32'5 4.8 28.6
2017-Dec-09 19:00N 14°04' W 080°37'5 1.3 28.6
2017-Dec-09 15:00N 14°02' W 080°31'1 1.2 28.5
2017-Dec-09 14:00N 14°02' W 080°30'1 0.6 28.5
2017-Dec-09 13:00N 14°02' W 080°29'1 0.8 28.5
2017-Dec-09 12:00N 14°02' W 080°29'0 0.0 28.5
2017-Dec-09 11:00N 14°02' W 080°29'2 1.8 28.5
2017-Dec-09 10:00N 14°01' W 080°27'1 0.6 28.6
2017-Dec-09 09:00N 14°01' W 080°26'0 0.0 28.6
2017-Dec-09 08:00N 14°01' W 080°26'5 1.0 28.6
2017-Dec-09 03:00N 14°01' W 080°21'1 0.6 28.7
2017-Dec-09 02:00N 14°01' W 080°20'1 0.8 28.7
2017-Dec-09 01:00N 14°02' W 080°20'2 1.7 28.7
2017-Dec-09 00:00N 14°02' W 080°18'0 0.0 28.7
2017-Dec-08 23:00N 14°02' W 080°18'1 1.2 28.7
2017-Dec-08 22:00N 14°02' W 080°17'1 0.6 28.7
2017-Dec-08 21:00N 14°02' W 080°16'1 0.6 28.7
2017-Dec-08 20:00N 14°02' W 080°16'0 0.0 28.7
2017-Dec-08 19:00N 14°02' W 080°16'5 1.3 28.7
2017-Dec-08 15:00N 14°02' W 080°10'0 0.0 28.7
2017-Dec-08 14:00N 14°02' W 080°10'1 0.6 28.7
2017-Dec-08 13:00N 14°02' W 080°10'1 1.2 28.8
2017-Dec-08 12:00N 14°02' W 080°08'1 1.2 28.8
2017-Dec-08 11:00N 14°02' W 080°07'0 0.0 28.7
2017-Dec-08 10:00N 14°02' W 080°07'7 7.4 28.7
2017-Dec-08 09:00N 13°59' W 080°00'0 0.0 28.7
2017-Dec-08 08:00N 13°59' W 080°00'0 0.0 28.6
2017-Dec-08 06:00N 13°59' W 080°00'1 0.3 28.5
2017-Dec-08 03:00N 13°59' W 079°59'2 1.8 28.6
2017-Dec-08 02:00N 13°58' W 079°58'1 0.6 28.6
2017-Dec-08 01:00N 13°58' W 079°57'2 2.4 28.7
2017-Dec-08 00:00N 13°58' W 079°55'0 0.0 28.7
2017-Dec-07 23:00N 13°58' W 079°55'5 5.4 28.8
2017-Dec-07 22:00N 13°56' W 079°49'0 0.0 28.8
2017-Dec-07 21:00N 13°56' W 079°49'0 0.0 28.8
2017-Dec-07 19:00N 13°56' W 079°49'9 2.3 28.8
2017-Dec-07 15:00N 13°57' W 079°40'2 1.7 28.8
2017-Dec-07 14:00N 13°57' W 079°38'0 0.0 28.8
2017-Dec-07 13:00N 13°57' W 079°38'3 3.5 28.8
2017-Dec-07 12:00N 13°57' W 079°34'1 0.6 28.8
2017-Dec-07 11:00N 13°57' W 079°34'4 3.5 28.8
2017-Dec-07 10:00N 13°58' W 079°30'9 9.2 28.8
2017-Dec-07 09:00N 14°01' W 079°21'0 0.0 28.8
2017-Dec-07 08:00N 14°01' W 079°21'0 0.0 28.8
2017-Dec-07 06:00N 14°01' W 079°21'1 0.4 28.8
2017-Dec-07 03:00N 14°01' W 079°20'1 1.3 28.8
2017-Dec-07 02:00N 14°02' W 079°19'1 1.2 28.8
2017-Dec-07 01:00N 14°02' W 079°17'3 2.6 28.8
2017-Dec-07 00:00N 14°03' W 079°15'3 3.1 28.8
2017-Dec-06 23:00N 14°04' W 079°12'1 1.3 28.8
2017-Dec-06 22:00N 14°05' W 079°11'0 0.0 28.8
2017-Dec-06 21:00N 14°05' W 079°11'8 8.1 28.8
2017-Dec-06 20:00N 14°08' W 079°03'2 0.3 28.8
2017-Dec-06 15:00N 14°08' W 079°01'3 3.1 28.8
2017-Dec-06 14:00N 14°09' W 078°58'0 0.0 28.9
2017-Dec-06 13:00N 14°09' W 078°58'1 0.6 28.8
2017-Dec-06 12:00N 14°09' W 078°58'2 2.4 28.8
2017-Dec-06 11:00N 14°10' W 078°55'2 2.4 28.8
2017-Dec-06 10:00N 14°10' W 078°53'1 0.6 28.7
2017-Dec-06 09:00N 14°10' W 078°52'9 9.0 28.7
2017-Dec-06 08:00N 14°13' W 078°43'0 0.0 28.7
2017-Dec-06 03:00N 14°13' W 078°43'3 2.6 28.7
2017-Dec-06 02:00N 14°14' W 078°41'1 0.6 28.7
2017-Dec-06 01:00N 14°14' W 078°40'3 2.6 28.7
2017-Dec-06 00:00N 14°15' W 078°38'1 1.3 28.7
2017-Dec-05 23:00N 14°16' W 078°37'1 1.2 28.7
2017-Dec-05 22:00N 14°16' W 078°35'2 2.4 28.7
2017-Dec-05 21:00N 14°16' W 078°33'0 0.0 28.7
2017-Dec-05 20:00N 14°16' W 078°33'7 7.1 28.7
2017-Dec-05 19:00N 14°17' W 078°26'0 0.0 28.7
2017-Dec-05 18:00N 14°17' W 078°26'0 0.0 28.6
2017-Dec-05 16:00N 14°17' W 078°26'4 2.2 28.6
2017-Dec-05 14:00N 14°19' W 078°22'1 1.3 28.5
2017-Dec-05 13:00N 14°20' W 078°20'1 0.6 28.5
2017-Dec-05 12:00N 14°20' W 078°20'1 0.8 28.5
2017-Dec-05 11:00N 14°20' W 078°19'2 2.3 28.5
2017-Dec-05 10:00N 14°20' W 078°17'1 1.3 28.5
2017-Dec-05 09:00N 14°21' W 078°16'2 2.4 28.5
2017-Dec-05 08:00N 14°22' W 078°13'1 0.8 28.5
2017-Dec-05 07:00N 14°22' W 078°14'9 1.8 28.6
2017-Dec-05 02:00N 14°25' W 078°05'3 3.0 28.6
2017-Dec-05 01:00N 14°25' W 078°02'0 0.0 28.6
2017-Dec-05 00:00N 14°25' W 078°02'2 1.8 28.6
2017-Dec-04 23:00N 14°26' W 078°00'3 3.0 28.6
2017-Dec-04 22:00N 14°26' W 077°57'0 0.0 28.6
2017-Dec-04 21:00N 14°26' W 077°57'2 1.8 28.6
2017-Dec-04 20:00N 14°27' W 077°55'0 0.0 28.6
2017-Dec-04 19:00N 14°27' W 077°55'0 0.0 28.6
2017-Dec-04 18:00N 14°27' W 077°55'9 2.2 28.6
2017-Dec-04 14:00N 14°30' W 077°47'0 0.0 28.6
2017-Dec-04 13:00N 14°30' W 077°47'4 4.1 28.6
2017-Dec-04 12:00N 14°31' W 077°43'1 1.3 28.5
2017-Dec-04 11:00N 14°31' W 077°41'1 0.8 28.6
2017-Dec-04 10:00N 14°32' W 077°41'0 0.0 28.5
2017-Dec-04 09:00N 14°32' W 077°41'2 1.7 28.5
2017-Dec-04 08:00N 14°33' W 077°40'8 7.6 28.5
2017-Dec-04 07:00N 14°36' W 077°32'1 0.1 28.6
2017-Dec-04 03:00N 14°35' W 077°32'2 2.1 28.6
2017-Dec-04 02:00N 14°37' W 077°31'1 1.3 28.6
2017-Dec-04 01:00N 14°37' W 077°29'0 0.0 28.7
2017-Dec-04 00:00N 14°37' W 077°29'4 4.2 28.7
2017-Dec-03 23:00N 14°38' W 077°25'0 0.0 28.7
2017-Dec-03 22:00N 14°38' W 077°25'0 0.0 28.7
2017-Dec-03 21:00N 14°38' W 077°25'2 2.4 28.7
2017-Dec-03 20:00N 14°39' W 077°23'1 0.6 28.7
2017-Dec-03 19:00N 14°39' W 077°23'0 0.0 28.7
2017-Dec-03 18:00N 14°39' W 077°23'7 2.2 28.7
2017-Dec-03 15:00N 14°41' W 077°17'1 1.3 28.6
2017-Dec-03 14:00N 14°41' W 077°16'2 2.4 28.6
2017-Dec-03 13:00N 14°42' W 077°13'3 2.6 28.6
2017-Dec-03 12:00N 14°43' W 077°11'0 0.0 28.6
2017-Dec-03 11:00N 14°43' W 077°11'2 1.8 28.6
2017-Dec-03 10:00N 14°44' W 077°09'2 1.8 28.6
2017-Dec-03 09:00N 14°44' W 077°07'7 7.4 28.6
2017-Dec-03 08:00N 14°47' W 077°00'0 0.0 28.7
2017-Dec-03 07:00N 14°47' W 077°00'1 0.3 28.6
2017-Dec-03 03:00N 14°47' W 076°59'2 1.8 28.7
2017-Dec-03 02:00N 14°48' W 076°57'2 2.4 28.7
2017-Dec-03 01:00N 14°49' W 076°55'5 4.8 28.7
2017-Dec-03 00:00N 14°50' W 076°50'0 0.0 28.7
2017-Dec-02 23:00N 14°50' W 076°50'1 0.6 28.8
2017-Dec-02 22:00N 14°50' W 076°49'0 0.0 28.8
2017-Dec-02 21:00N 14°50' W 076°49'3 3.1 28.8
2017-Dec-02 20:00N 14°51' W 076°46'6 6.3 28.8
2017-Dec-02 19:00N 14°53' W 076°40'0 0.0 28.8
2017-Dec-02 15:00N 14°53' W 076°40'2 1.7
2017-Dec-02 14:00N 14°55' W 076°39'1 1.2 28.7
2017-Dec-02 13:00N 14°55' W 076°38'2 1.8 28.7
2017-Dec-02 12:00N 14°55' W 076°36'1 0.6 28.7
2017-Dec-02 11:00N 14°55' W 076°35'2 2.4 28.7
2017-Dec-02 10:00N 14°56' W 076°33'0 0.0 28.7
2017-Dec-02 09:00N 14°56' W 076°33'7 6.6 28.7
2017-Dec-02 08:00N 14°58' W 076°26'7 6.6 28.7
2017-Dec-02 07:00N 14°56' W 076°33'7 1.7 28.7
2017-Dec-02 03:00N 14°58' W 076°26'2 1.7 28.7
2017-Dec-02 02:00N 14°58' W 076°25'0 0.0 28.7
2017-Dec-02 01:00N 14°58' W 076°25'1 1.3 28.7
2017-Dec-02 00:00N 14°58' W 076°23'1 0.8 28.8
2017-Dec-01 23:00N 14°59' W 076°23'2 1.8 28.8
2017-Dec-01 22:00N 14°59' W 076°21'0 0.0 28.8
2017-Dec-01 21:00N 14°59' W 076°21'2 1.8 28.8
2017-Dec-01 20:00N 15°00' W 076°19'1 0.6 28.8
2017-Dec-01 19:00N 14°59' W 076°19'6 1.4 28.8
2017-Dec-01 15:00N 15°01' W 076°14'1 0.8 28.7
2017-Dec-01 14:00N 15°02' W 076°13'   28.7

Dump ship's entire track history